Terminal Aerodrome Forecast
Issued by NWS Cleveland, OH

Home | Current Version | Previous Version | Text Only | Print | Product List | Glossary Off
Versions: 1 2 3 4 5 6 7 8 9 10 11 12 13 14 15 16 17 18 19 20

000
FTUS41 KCLE 140542
TAFMFD
TAF
KMFD 140542Z 1406/1506 29015G25KT 3SM -SN SCT007 OVC014
      TEMPO 1406/1407 1SM -SN OVC007
     FM140900 33014G22KT P6SM VCSH BKN007 OVC012
     FM141200 33010KT P6SM OVC015
     FM141700 31008KT P6SM SCT015 BKN025
     FM142100 30005KT P6SM BKN035=

USA.gov is the U.S. government's official web portal to all federal, state and local government web resources and services.